sensor_id;sensor_type;location;lat;lon;timestamp;temperature;humidity
70534;SHT31;58088;51.186;17.130;2022-08-21T00:01:46;21.54;81.89
70534;SHT31;58088;51.186;17.130;2022-08-21T00:04:12;21.56;81.89
70534;SHT31;58088;51.186;17.130;2022-08-21T00:06:39;21.57;81.70
70534;SHT31;58088;51.186;17.130;2022-08-21T00:09:06;21.54;81.72
70534;SHT31;58088;51.186;17.130;2022-08-21T00:11:34;21.56;81.76
70534;SHT31;58088;51.186;17.130;2022-08-21T00:14:03;21.54;81.54
70534;SHT31;58088;51.186;17.130;2022-08-21T00:16:33;21.48;81.56
70534;SHT31;58088;51.186;17.130;2022-08-21T00:18:59;21.44;81.55
70534;SHT31;58088;51.186;17.130;2022-08-21T00:21:25;21.40;81.56
70534;SHT31;58088;51.186;17.130;2022-08-21T00:23:52;21.34;81.71
70534;SHT31;58088;51.186;17.130;2022-08-21T00:26:18;21.32;81.96
70534;SHT31;58088;51.186;17.130;2022-08-21T00:28:44;21.31;81.90
70534;SHT31;58088;51.186;17.130;2022-08-21T00:31:11;21.27;81.89
70534;SHT31;58088;51.186;17.130;2022-08-21T00:33:38;21.24;82.03
70534;SHT31;58088;51.186;17.130;2022-08-21T00:36:04;21.23;82.10
70534;SHT31;58088;51.186;17.130;2022-08-21T00:38:30;21.20;82.05
70534;SHT31;58088;51.186;17.130;2022-08-21T00:40:58;21.17;82.10
70534;SHT31;58088;51.186;17.130;2022-08-21T00:43:30;21.16;82.25
70534;SHT31;58088;51.186;17.130;2022-08-21T00:46:00;21.11;82.20
70534;SHT31;58088;51.186;17.130;2022-08-21T00:48:29;21.07;82.31
70534;SHT31;58088;51.186;17.130;2022-08-21T00:51:10;21.05;82.36
70534;SHT31;58088;51.186;17.130;2022-08-21T00:53:47;21.02;82.27
70534;SHT31;58088;51.186;17.130;2022-08-21T00:56:21;21.01;82.40
70534;SHT31;58088;51.186;17.130;2022-08-21T00:58:50;21.00;82.25
70534;SHT31;58088;51.186;17.130;2022-08-21T01:04:36;20.95;82.20
70534;SHT31;58088;51.186;17.130;2022-08-21T01:07:03;20.94;82.20
70534;SHT31;58088;51.186;17.130;2022-08-21T01:09:30;20.93;82.21
70534;SHT31;58088;51.186;17.130;2022-08-21T01:11:56;20.92;82.29
70534;SHT31;58088;51.186;17.130;2022-08-21T01:14:23;20.89;82.24
70534;SHT31;58088;51.186;17.130;2022-08-21T01:16:51;20.88;82.20
70534;SHT31;58088;51.186;17.130;2022-08-21T01:19:20;20.86;82.24
70534;SHT31;58088;51.186;17.130;2022-08-21T01:21:47;20.86;82.31
70534;SHT31;58088;51.186;17.130;2022-08-21T01:24:14;20.87;82.29
70534;SHT31;58088;51.186;17.130;2022-08-21T01:26:40;20.85;82.42
70534;SHT31;58088;51.186;17.130;2022-08-21T01:31:51;20.85;82.57
70534;SHT31;58088;51.186;17.130;2022-08-21T01:34:17;20.86;82.56
70534;SHT31;58088;51.186;17.130;2022-08-21T01:36:45;20.85;82.63
70534;SHT31;58088;51.186;17.130;2022-08-21T01:39:12;20.83;82.72
70534;SHT31;58088;51.186;17.130;2022-08-21T01:41:40;20.82;82.78
70534;SHT31;58088;51.186;17.130;2022-08-21T01:44:07;20.81;82.71
70534;SHT31;58088;51.186;17.130;2022-08-21T01:46:35;20.78;82.63
70534;SHT31;58088;51.186;17.130;2022-08-21T01:49:02;20.76;82.64
70534;SHT31;58088;51.186;17.130;2022-08-21T01:51:30;20.74;82.66
70534;SHT31;58088;51.186;17.130;2022-08-21T01:53:56;20.73;82.59
70534;SHT31;58088;51.186;17.130;2022-08-21T01:56:22;20.70;82.48
70534;SHT31;58088;51.186;17.130;2022-08-21T01:58:51;20.65;82.44
70534;SHT31;58088;51.186;17.130;2022-08-21T02:01:17;20.61;82.54
70534;SHT31;58088;51.186;17.130;2022-08-21T02:03:43;20.58;82.53
70534;SHT31;58088;51.186;17.130;2022-08-21T02:06:12;20.55;82.47
70534;SHT31;58088;51.186;17.130;2022-08-21T02:08:43;20.50;82.43
70534;SHT31;58088;51.186;17.130;2022-08-21T02:11:10;20.46;82.53
70534;SHT31;58088;51.186;17.130;2022-08-21T02:13:36;20.45;82.54
70534;SHT31;58088;51.186;17.130;2022-08-21T02:16:03;20.42;82.45
70534;SHT31;58088;51.186;17.130;2022-08-21T02:18:30;20.39;82.50
70534;SHT31;58088;51.186;17.130;2022-08-21T02:20:56;20.35;82.49
70534;SHT31;58088;51.186;17.130;2022-08-21T02:23:23;20.32;82.51
70534;SHT31;58088;51.186;17.130;2022-08-21T02:25:49;20.27;82.56
70534;SHT31;58088;51.186;17.130;2022-08-21T02:28:16;20.22;82.61
70534;SHT31;58088;51.186;17.130;2022-08-21T02:30:44;20.21;82.73
70534;SHT31;58088;51.186;17.130;2022-08-21T02:33:13;20.17;82.63
70534;SHT31;58088;51.186;17.130;2022-08-21T02:35:41;20.13;82.68
70534;SHT31;58088;51.186;17.130;2022-08-21T02:38:10;20.10;82.71
70534;SHT31;58088;51.186;17.130;2022-08-21T02:40:42;20.08;82.73
70534;SHT31;58088;51.186;17.130;2022-08-21T02:43:11;20.07;82.68
70534;SHT31;58088;51.186;17.130;2022-08-21T02:45:38;20.03;82.66
70534;SHT31;58088;51.186;17.130;2022-08-21T02:48:06;19.99;82.83
70534;SHT31;58088;51.186;17.130;2022-08-21T02:50:37;19.98;82.85
70534;SHT31;58088;51.186;17.130;2022-08-21T02:53:14;19.95;82.88
70534;SHT31;58088;51.186;17.130;2022-08-21T02:55:43;19.93;82.88
70534;SHT31;58088;51.186;17.130;2022-08-21T02:58:14;19.93;83.00
70534;SHT31;58088;51.186;17.130;2022-08-21T03:00:45;19.94;82.99
70534;SHT31;58088;51.186;17.130;2022-08-21T03:03:11;19.95;82.99
70534;SHT31;58088;51.186;17.130;2022-08-21T03:05:40;19.97;82.90
70534;SHT31;58088;51.186;17.130;2022-08-21T03:08:08;19.99;82.79
70534;SHT31;58088;51.186;17.130;2022-08-21T03:10:38;20.01;82.78
70534;SHT31;58088;51.186;17.130;2022-08-21T03:13:09;19.99;82.79
70534;SHT31;58088;51.186;17.130;2022-08-21T03:15:37;20.01;82.83
70534;SHT31;58088;51.186;17.130;2022-08-21T03:18:03;20.00;82.81
70534;SHT31;58088;51.186;17.130;2022-08-21T03:20:31;19.99;82.70
70534;SHT31;58088;51.186;17.130;2022-08-21T03:22:58;19.99;82.57
70534;SHT31;58088;51.186;17.130;2022-08-21T03:25:27;19.99;82.65
70534;SHT31;58088;51.186;17.130;2022-08-21T03:27:58;19.98;82.61
70534;SHT31;58088;51.186;17.130;2022-08-21T03:30:25;19.96;82.52
70534;SHT31;58088;51.186;17.130;2022-08-21T03:32:52;19.94;82.50
70534;SHT31;58088;51.186;17.130;2022-08-21T03:35:19;19.91;82.47
70534;SHT31;58088;51.186;17.130;2022-08-21T03:37:46;19.90;82.57
70534;SHT31;58088;51.186;17.130;2022-08-21T03:40:13;19.90;82.65
70534;SHT31;58088;51.186;17.130;2022-08-21T03:42:43;19.89;82.66
70534;SHT31;58088;51.186;17.130;2022-08-21T03:45:13;19.87;82.72
70534;SHT31;58088;51.186;17.130;2022-08-21T03:47:56;19.87;82.74
70534;SHT31;58088;51.186;17.130;2022-08-21T03:50:31;19.85;82.75
70534;SHT31;58088;51.186;17.130;2022-08-21T03:53:03;19.83;82.74
70534;SHT31;58088;51.186;17.130;2022-08-21T03:55:29;19.83;82.66
70534;SHT31;58088;51.186;17.130;2022-08-21T03:57:56;19.82;82.72
70534;SHT31;58088;51.186;17.130;2022-08-21T04:00:22;19.81;82.71
70534;SHT31;58088;51.186;17.130;2022-08-21T04:02:50;19.81;82.64
70534;SHT31;58088;51.186;17.130;2022-08-21T04:05:17;19.81;82.61
70534;SHT31;58088;51.186;17.130;2022-08-21T04:07:56;19.82;82.52
70534;SHT31;58088;51.186;17.130;2022-08-21T04:10:26;19.81;82.42
70534;SHT31;58088;51.186;17.130;2022-08-21T04:12:56;19.77;82.45
70534;SHT31;58088;51.186;17.130;2022-08-21T04:15:23;19.77;82.50
70534;SHT31;58088;51.186;17.130;2022-08-21T04:17:52;19.74;82.41
70534;SHT31;58088;51.186;17.130;2022-08-21T04:20:19;19.70;82.48
70534;SHT31;58088;51.186;17.130;2022-08-21T04:22:47;19.68;82.52
70534;SHT31;58088;51.186;17.130;2022-08-21T04:25:16;19.70;82.56
70534;SHT31;58088;51.186;17.130;2022-08-21T04:27:45;19.70;82.60
70534;SHT31;58088;51.186;17.130;2022-08-21T04:30:12;19.67;82.61
70534;SHT31;58088;51.186;17.130;2022-08-21T04:32:44;19.64;82.62
70534;SHT31;58088;51.186;17.130;2022-08-21T04:35:13;19.58;82.76
70534;SHT31;58088;51.186;17.130;2022-08-21T04:37:42;19.56;82.84
70534;SHT31;58088;51.186;17.130;2022-08-21T04:40:09;19.52;83.04
70534;SHT31;58088;51.186;17.130;2022-08-21T04:42:48;19.51;83.09
70534;SHT31;58088;51.186;17.130;2022-08-21T04:46:02;19.52;83.13
70534;SHT31;58088;51.186;17.130;2022-08-21T04:48:13;19.52;83.06
70534;SHT31;58088;51.186;17.130;2022-08-21T04:51:31;19.52;83.11
70534;SHT31;58088;51.186;17.130;2022-08-21T04:53:59;19.48;83.33
70534;SHT31;58088;51.186;17.130;2022-08-21T04:56:41;19.46;83.32
70534;SHT31;58088;51.186;17.130;2022-08-21T04:59:13;19.46;83.39
70534;SHT31;58088;51.186;17.130;2022-08-21T05:01:54;19.46;83.44
70534;SHT31;58088;51.186;17.130;2022-08-21T05:04:23;19.46;83.44
70534;SHT31;58088;51.186;17.130;2022-08-21T05:06:56;19.51;83.42
70534;SHT31;58088;51.186;17.130;2022-08-21T05:09:27;19.50;83.54
70534;SHT31;58088;51.186;17.130;2022-08-21T05:11:54;19.51;83.50
70534;SHT31;58088;51.186;17.130;2022-08-21T05:14:21;19.52;83.46
70534;SHT31;58088;51.186;17.130;2022-08-21T05:16:47;19.53;83.50
70534;SHT31;58088;51.186;17.130;2022-08-21T05:19:14;19.52;83.89
70534;SHT31;58088;51.186;17.130;2022-08-21T05:21:41;19.52;83.73
70534;SHT31;58088;51.186;17.130;2022-08-21T05:24:10;19.52;83.70
70534;SHT31;58088;51.186;17.130;2022-08-21T05:26:37;19.53;83.87
70534;SHT31;58088;51.186;17.130;2022-08-21T05:29:04;19.54;83.74
70534;SHT31;58088;51.186;17.130;2022-08-21T05:31:31;19.54;83.59
70534;SHT31;58088;51.186;17.130;2022-08-21T05:33:57;19.52;83.47
70534;SHT31;58088;51.186;17.130;2022-08-21T05:36:23;19.48;83.39
70534;SHT31;58088;51.186;17.130;2022-08-21T05:38:50;19.46;83.31
70534;SHT31;58088;51.186;17.130;2022-08-21T05:41:16;19.45;83.32
70534;SHT31;58088;51.186;17.130;2022-08-21T05:43:42;19.43;83.33
70534;SHT31;58088;51.186;17.130;2022-08-21T05:46:09;19.42;83.29
70534;SHT31;58088;51.186;17.130;2022-08-21T05:48:35;19.40;83.32
70534;SHT31;58088;51.186;17.130;2022-08-21T05:51:06;19.39;83.29
70534;SHT31;58088;51.186;17.130;2022-08-21T05:53:36;19.37;83.31
70534;SHT31;58088;51.186;17.130;2022-08-21T05:56:03;19.36;83.34
70534;SHT31;58088;51.186;17.130;2022-08-21T05:58:31;19.36;83.35
70534;SHT31;58088;51.186;17.130;2022-08-21T06:00:59;19.37;83.35
70534;SHT31;58088;51.186;17.130;2022-08-21T06:03:30;19.35;83.41
70534;SHT31;58088;51.186;17.130;2022-08-21T06:06:01;19.34;83.45
70534;SHT31;58088;51.186;17.130;2022-08-21T06:08:28;19.33;83.46
70534;SHT31;58088;51.186;17.130;2022-08-21T06:10:55;19.34;83.56
70534;SHT31;58088;51.186;17.130;2022-08-21T06:13:25;19.35;83.72
70534;SHT31;58088;51.186;17.130;2022-08-21T06:18:40;19.36;83.67
70534;SHT31;58088;51.186;17.130;2022-08-21T06:21:07;19.35;83.62
70534;SHT31;58088;51.186;17.130;2022-08-21T06:23:35;19.36;83.60
70534;SHT31;58088;51.186;17.130;2022-08-21T06:26:02;19.34;83.58
70534;SHT31;58088;51.186;17.130;2022-08-21T06:28:32;19.32;83.61
70534;SHT31;58088;51.186;17.130;2022-08-21T06:31:00;19.31;83.59
70534;SHT31;58088;51.186;17.130;2022-08-21T06:33:28;19.29;83.53
70534;SHT31;58088;51.186;17.130;2022-08-21T06:35:57;19.28;83.52
70534;SHT31;58088;51.186;17.130;2022-08-21T06:38:26;19.27;83.50
70534;SHT31;58088;51.186;17.130;2022-08-21T06:40:55;19.26;83.49
70534;SHT31;58088;51.186;17.130;2022-08-21T06:43:24;19.25;83.62
70534;SHT31;58088;51.186;17.130;2022-08-21T06:45:50;19.24;83.58
70534;SHT31;58088;51.186;17.130;2022-08-21T06:48:16;19.24;83.71
70534;SHT31;58088;51.186;17.130;2022-08-21T06:50:42;19.24;83.96
70534;SHT31;58088;51.186;17.130;2022-08-21T06:53:12;19.24;83.92
70534;SHT31;58088;51.186;17.130;2022-08-21T06:55:41;19.21;83.73
70534;SHT31;58088;51.186;17.130;2022-08-21T06:58:08;19.15;83.34
70534;SHT31;58088;51.186;17.130;2022-08-21T07:00:40;19.03;82.82
70534;SHT31;58088;51.186;17.130;2022-08-21T07:03:21;18.93;82.55
70534;SHT31;58088;51.186;17.130;2022-08-21T07:05:54;18.83;82.44
70534;SHT31;58088;51.186;17.130;2022-08-21T07:08:24;18.77;82.49
70534;SHT31;58088;51.186;17.130;2022-08-21T07:10:53;18.72;82.47
70534;SHT31;58088;51.186;17.130;2022-08-21T07:13:23;18.65;82.56
70534;SHT31;58088;51.186;17.130;2022-08-21T07:15:49;18.59;82.66
70534;SHT31;58088;51.186;17.130;2022-08-21T07:18:16;18.53;82.72
70534;SHT31;58088;51.186;17.130;2022-08-21T07:20:42;18.48;82.92
70534;SHT31;58088;51.186;17.130;2022-08-21T07:23:12;18.46;82.99
70534;SHT31;58088;51.186;17.130;2022-08-21T07:25:49;18.42;83.10
70534;SHT31;58088;51.186;17.130;2022-08-21T07:28:15;18.39;83.27
70534;SHT31;58088;51.186;17.130;2022-08-21T07:30:42;18.33;83.12
70534;SHT31;58088;51.186;17.130;2022-08-21T07:33:08;18.23;83.08
70534;SHT31;58088;51.186;17.130;2022-08-21T07:35:34;18.13;82.96
70534;SHT31;58088;51.186;17.130;2022-08-21T07:38:01;18.02;82.88
70534;SHT31;58088;51.186;17.130;2022-08-21T07:40:27;17.93;82.86
70534;SHT31;58088;51.186;17.130;2022-08-21T07:42:53;17.83;82.74
70534;SHT31;58088;51.186;17.130;2022-08-21T07:45:20;17.73;82.79
70534;SHT31;58088;51.186;17.130;2022-08-21T07:47:49;17.67;82.70
70534;SHT31;58088;51.186;17.130;2022-08-21T07:50:16;17.63;82.71
70534;SHT31;58088;51.186;17.130;2022-08-21T07:52:44;17.57;82.79
70534;SHT31;58088;51.186;17.130;2022-08-21T07:55:12;17.53;82.78
70534;SHT31;58088;51.186;17.130;2022-08-21T07:57:42;17.48;82.75
70534;SHT31;58088;51.186;17.130;2022-08-21T08:00:11;17.45;82.83
70534;SHT31;58088;51.186;17.130;2022-08-21T08:02:46;17.43;82.79
70534;SHT31;58088;51.186;17.130;2022-08-21T08:05:16;17.40;82.79
70534;SHT31;58088;51.186;17.130;2022-08-21T08:07:45;17.38;82.90
70534;SHT31;58088;51.186;17.130;2022-08-21T08:10:13;17.36;83.04
70534;SHT31;58088;51.186;17.130;2022-08-21T08:12:41;17.39;83.11
70534;SHT31;58088;51.186;17.130;2022-08-21T08:15:10;17.41;82.99
70534;SHT31;58088;51.186;17.130;2022-08-21T08:17:42;17.42;83.00
70534;SHT31;58088;51.186;17.130;2022-08-21T08:20:10;17.40;83.02
70534;SHT31;58088;51.186;17.130;2022-08-21T08:22:38;17.43;83.20
70534;SHT31;58088;51.186;17.130;2022-08-21T08:25:07;17.44;83.23
70534;SHT31;58088;51.186;17.130;2022-08-21T08:27:36;17.46;83.24
70534;SHT31;58088;51.186;17.130;2022-08-21T08:30:04;17.44;83.10
70534;SHT31;58088;51.186;17.130;2022-08-21T08:32:33;17.43;83.10
70534;SHT31;58088;51.186;17.130;2022-08-21T08:35:00;17.41;83.03
70534;SHT31;58088;51.186;17.130;2022-08-21T08:37:26;17.42;83.15
70534;SHT31;58088;51.186;17.130;2022-08-21T08:39:52;17.43;83.13
70534;SHT31;58088;51.186;17.130;2022-08-21T08:42:24;17.42;83.14
70534;SHT31;58088;51.186;17.130;2022-08-21T08:45:03;17.40;83.16
70534;SHT31;58088;51.186;17.130;2022-08-21T08:47:35;17.39;83.18
70534;SHT31;58088;51.186;17.130;2022-08-21T08:52:43;17.39;83.48
70534;SHT31;58088;51.186;17.130;2022-08-21T08:55:21;17.42;83.59
70534;SHT31;58088;51.186;17.130;2022-08-21T08:57:56;17.43;83.62
70534;SHT31;58088;51.186;17.130;2022-08-21T09:00:23;17.47;83.72
70534;SHT31;58088;51.186;17.130;2022-08-21T09:02:54;17.51;83.70
70534;SHT31;58088;51.186;17.130;2022-08-21T09:05:26;17.55;83.73
70534;SHT31;58088;51.186;17.130;2022-08-21T09:13:34;17.64;83.68
70534;SHT31;58088;51.186;17.130;2022-08-21T09:22:16;17.66;83.78
70534;SHT31;58088;51.186;17.130;2022-08-21T09:25:12;17.71;83.80
70534;SHT31;58088;51.186;17.130;2022-08-21T09:27:46;17.75;83.75
70534;SHT31;58088;51.186;17.130;2022-08-21T09:30:13;17.80;83.74
70534;SHT31;58088;51.186;17.130;2022-08-21T09:32:40;17.84;83.74
70534;SHT31;58088;51.186;17.130;2022-08-21T09:35:09;17.87;83.70
70534;SHT31;58088;51.186;17.130;2022-08-21T09:37:55;17.91;83.69
70534;SHT31;58088;51.186;17.130;2022-08-21T09:40:31;17.96;83.76
70534;SHT31;58088;51.186;17.130;2022-08-21T09:45:38;18.03;83.65
70534;SHT31;58088;51.186;17.130;2022-08-21T09:50:50;18.00;83.48
70534;SHT31;58088;51.186;17.130;2022-08-21T09:53:23;17.95;83.40
70534;SHT31;58088;51.186;17.130;2022-08-21T09:55:56;17.96;83.40
70534;SHT31;58088;51.186;17.130;2022-08-21T09:58:47;17.97;83.30
70534;SHT31;58088;51.186;17.130;2022-08-21T10:01:20;17.95;83.20
70534;SHT31;58088;51.186;17.130;2022-08-21T10:04:02;17.92;83.16
70534;SHT31;58088;51.186;17.130;2022-08-21T10:06:33;17.90;83.04
70534;SHT31;58088;51.186;17.130;2022-08-21T10:09:08;17.88;82.90
70534;SHT31;58088;51.186;17.130;2022-08-21T10:11:40;17.83;82.69
70534;SHT31;58088;51.186;17.130;2022-08-21T10:14:18;17.78;82.59
70534;SHT31;58088;51.186;17.130;2022-08-21T10:17:01;17.80;82.60
70534;SHT31;58088;51.186;17.130;2022-08-21T10:22:40;17.87;82.52
70534;SHT31;58088;51.186;17.130;2022-08-21T10:25:48;17.93;82.47
70534;SHT31;58088;51.186;17.130;2022-08-21T10:28:32;17.95;82.32
70534;SHT31;58088;51.186;17.130;2022-08-21T10:33:53;18.02;82.32
70534;SHT31;58088;51.186;17.130;2022-08-21T10:36:46;18.04;82.19
70534;SHT31;58088;51.186;17.130;2022-08-21T10:48:15;17.93;81.90
70534;SHT31;58088;51.186;17.130;2022-08-21T10:51:12;17.95;81.83
70534;SHT31;58088;51.186;17.130;2022-08-21T10:56:38;17.94;81.75
70534;SHT31;58088;51.186;17.130;2022-08-21T11:02:03;17.97;81.56
70534;SHT31;58088;51.186;17.130;2022-08-21T11:07:32;18.02;81.37
70534;SHT31;58088;51.186;17.130;2022-08-21T11:10:10;18.04;81.36
70534;SHT31;58088;51.186;17.130;2022-08-21T11:12:52;18.08;81.38
70534;SHT31;58088;51.186;17.130;2022-08-21T11:15:30;18.11;81.26
70534;SHT31;58088;51.186;17.130;2022-08-21T11:18:00;18.12;81.21
70534;SHT31;58088;51.186;17.130;2022-08-21T11:21:02;18.12;81.07
70534;SHT31;58088;51.186;17.130;2022-08-21T11:24:00;18.06;80.96
70534;SHT31;58088;51.186;17.130;2022-08-21T11:26:51;18.03;81.04
70534;SHT31;58088;51.186;17.130;2022-08-21T11:29:44;17.99;81.00
70534;SHT31;58088;51.186;17.130;2022-08-21T11:44:30;18.02;81.17
70534;SHT31;58088;51.186;17.130;2022-08-21T11:53:15;18.06;81.51
70534;SHT31;58088;51.186;17.130;2022-08-21T11:58:40;18.11;81.48
70534;SHT31;58088;51.186;17.130;2022-08-21T12:01:17;18.13;81.51
70534;SHT31;58088;51.186;17.130;2022-08-21T12:06:30;18.20;81.42
70534;SHT31;58088;51.186;17.130;2022-08-21T12:09:05;18.22;81.35
70534;SHT31;58088;51.186;17.130;2022-08-21T12:12:24;18.22;81.33
70534;SHT31;58088;51.186;17.130;2022-08-21T12:15:13;18.25;81.31
70534;SHT31;58088;51.186;17.130;2022-08-21T12:18:04;18.30;81.37
70534;SHT31;58088;51.186;17.130;2022-08-21T12:21:00;18.34;81.31
70534;SHT31;58088;51.186;17.130;2022-08-21T12:23:31;18.40;81.16
70534;SHT31;58088;51.186;17.130;2022-08-21T12:27:13;18.43;80.98
70534;SHT31;58088;51.186;17.130;2022-08-21T12:29:52;18.40;80.68
70534;SHT31;58088;51.186;17.130;2022-08-21T12:33:17;18.33;80.49
70534;SHT31;58088;51.186;17.130;2022-08-21T12:35:33;18.28;80.33
70534;SHT31;58088;51.186;17.130;2022-08-21T12:38:12;18.21;80.23
70534;SHT31;58088;51.186;17.130;2022-08-21T12:41:02;18.16;80.26
70534;SHT31;58088;51.186;17.130;2022-08-21T12:43:40;18.14;80.31
70534;SHT31;58088;51.186;17.130;2022-08-21T12:46:18;18.17;80.36
70534;SHT31;58088;51.186;17.130;2022-08-21T12:48:58;18.19;80.49
70534;SHT31;58088;51.186;17.130;2022-08-21T12:54:56;18.19;80.50
70534;SHT31;58088;51.186;17.130;2022-08-21T12:57:23;18.19;80.60
70534;SHT31;58088;51.186;17.130;2022-08-21T13:00:00;18.21;80.59
70534;SHT31;58088;51.186;17.130;2022-08-21T13:02:35;18.20;80.59
70534;SHT31;58088;51.186;17.130;2022-08-21T13:05:11;18.21;80.62
70534;SHT31;58088;51.186;17.130;2022-08-21T13:07:46;18.23;80.83
70534;SHT31;58088;51.186;17.130;2022-08-21T13:10:18;18.26;80.73
70534;SHT31;58088;51.186;17.130;2022-08-21T13:12:46;18.32;80.75
70534;SHT31;58088;51.186;17.130;2022-08-21T13:15:14;18.38;80.69
70534;SHT31;58088;51.186;17.130;2022-08-21T13:17:50;18.42;80.66
70534;SHT31;58088;51.186;17.130;2022-08-21T13:20:21;18.45;80.56
70534;SHT31;58088;51.186;17.130;2022-08-21T13:22:52;18.50;80.58
70534;SHT31;58088;51.186;17.130;2022-08-21T13:25:20;18.51;80.51
70534;SHT31;58088;51.186;17.130;2022-08-21T13:28:06;18.52;80.55
70534;SHT31;58088;51.186;17.130;2022-08-21T13:30:47;18.55;80.58
70534;SHT31;58088;51.186;17.130;2022-08-21T13:33:19;18.59;80.61
70534;SHT31;58088;51.186;17.130;2022-08-21T13:35:51;18.62;80.56
70534;SHT31;58088;51.186;17.130;2022-08-21T13:38:35;18.65;80.60
70534;SHT31;58088;51.186;17.130;2022-08-21T13:41:08;18.67;80.63
70534;SHT31;58088;51.186;17.130;2022-08-21T13:43:56;18.72;80.72
70534;SHT31;58088;51.186;17.130;2022-08-21T13:46:28;18.78;80.79
70534;SHT31;58088;51.186;17.130;2022-08-21T13:49:01;18.82;80.78
70534;SHT31;58088;51.186;17.130;2022-08-21T13:51:32;18.86;80.74
70534;SHT31;58088;51.186;17.130;2022-08-21T13:54:00;18.88;80.76
70534;SHT31;58088;51.186;17.130;2022-08-21T13:56:48;18.88;80.82
70534;SHT31;58088;51.186;17.130;2022-08-21T13:59:23;18.85;80.93
70534;SHT31;58088;51.186;17.130;2022-08-21T14:02:08;18.85;81.04
70534;SHT31;58088;51.186;17.130;2022-08-21T14:05:16;18.86;81.10
70534;SHT31;58088;51.186;17.130;2022-08-21T14:10:48;18.82;81.32
70534;SHT31;58088;51.186;17.130;2022-08-21T14:15:57;18.84;81.51
70534;SHT31;58088;51.186;17.130;2022-08-21T14:18:27;18.83;81.56
70534;SHT31;58088;51.186;17.130;2022-08-21T14:21:07;18.84;81.70
70534;SHT31;58088;51.186;17.130;2022-08-21T14:23:35;18.85;81.76
70534;SHT31;58088;51.186;17.130;2022-08-21T14:26:03;18.85;81.85
70534;SHT31;58088;51.186;17.130;2022-08-21T14:28:33;18.85;81.92
70534;SHT31;58088;51.186;17.130;2022-08-21T14:31:12;18.85;81.97
70534;SHT31;58088;51.186;17.130;2022-08-21T14:33:45;18.87;82.06
70534;SHT31;58088;51.186;17.130;2022-08-21T14:36:12;18.87;81.98
70534;SHT31;58088;51.186;17.130;2022-08-21T14:38:39;18.85;82.01
70534;SHT31;58088;51.186;17.130;2022-08-21T14:41:14;18.80;82.15
70534;SHT31;58088;51.186;17.130;2022-08-21T14:43:49;18.79;82.23
70534;SHT31;58088;51.186;17.130;2022-08-21T14:46:21;18.79;82.31
70534;SHT31;58088;51.186;17.130;2022-08-21T14:48:52;18.78;82.31
70534;SHT31;58088;51.186;17.130;2022-08-21T14:51:18;18.78;82.36
70534;SHT31;58088;51.186;17.130;2022-08-21T14:53:45;18.81;82.35
70534;SHT31;58088;51.186;17.130;2022-08-21T14:56:11;18.82;82.39
70534;SHT31;58088;51.186;17.130;2022-08-21T14:58:42;18.85;82.39
70534;SHT31;58088;51.186;17.130;2022-08-21T15:01:15;18.87;82.32
70534;SHT31;58088;51.186;17.130;2022-08-21T15:03:44;18.88;82.28
70534;SHT31;58088;51.186;17.130;2022-08-21T15:06:11;18.88;82.23
70534;SHT31;58088;51.186;17.130;2022-08-21T15:08:38;18.87;82.32
70534;SHT31;58088;51.186;17.130;2022-08-21T15:11:05;18.86;82.37
70534;SHT31;58088;51.186;17.130;2022-08-21T15:13:34;18.89;82.32
70534;SHT31;58088;51.186;17.130;2022-08-21T15:16:02;18.89;82.28
70534;SHT31;58088;51.186;17.130;2022-08-21T15:18:29;18.92;82.30
70534;SHT31;58088;51.186;17.130;2022-08-21T15:20:56;18.96;82.23
70534;SHT31;58088;51.186;17.130;2022-08-21T15:23:23;18.99;82.11
70534;SHT31;58088;51.186;17.130;2022-08-21T15:25:49;19.00;82.11
70534;SHT31;58088;51.186;17.130;2022-08-21T15:28:17;19.05;82.04
70534;SHT31;58088;51.186;17.130;2022-08-21T15:30:45;19.11;82.01
70534;SHT31;58088;51.186;17.130;2022-08-21T15:33:12;19.14;81.85
70534;SHT31;58088;51.186;17.130;2022-08-21T15:35:39;19.18;81.86
70534;SHT31;58088;51.186;17.130;2022-08-21T15:38:06;19.22;81.67
70534;SHT31;58088;51.186;17.130;2022-08-21T15:40:33;19.25;81.56
70534;SHT31;58088;51.186;17.130;2022-08-21T15:43:02;19.26;81.47
70534;SHT31;58088;51.186;17.130;2022-08-21T15:45:31;19.26;81.39
70534;SHT31;58088;51.186;17.130;2022-08-21T15:47:58;19.29;81.31
70534;SHT31;58088;51.186;17.130;2022-08-21T15:50:25;19.29;81.27
70534;SHT31;58088;51.186;17.130;2022-08-21T15:52:52;19.30;81.22
70534;SHT31;58088;51.186;17.130;2022-08-21T15:55:18;19.30;81.14
70534;SHT31;58088;51.186;17.130;2022-08-21T15:57:46;19.27;81.04
70534;SHT31;58088;51.186;17.130;2022-08-21T16:00:18;19.29;81.10
70534;SHT31;58088;51.186;17.130;2022-08-21T16:02:49;19.31;81.11
70534;SHT31;58088;51.186;17.130;2022-08-21T16:05:19;19.32;81.06
70534;SHT31;58088;51.186;17.130;2022-08-21T16:07:48;19.33;81.01
70534;SHT31;58088;51.186;17.130;2022-08-21T16:10:17;19.31;80.97
70534;SHT31;58088;51.186;17.130;2022-08-21T16:12:54;19.30;80.96
70534;SHT31;58088;51.186;17.130;2022-08-21T16:15:31;19.32;80.98
70534;SHT31;58088;51.186;17.130;2022-08-21T16:17:58;19.33;80.92
70534;SHT31;58088;51.186;17.130;2022-08-21T16:20:26;19.32;80.87
70534;SHT31;58088;51.186;17.130;2022-08-21T16:22:55;19.31;80.84
70534;SHT31;58088;51.186;17.130;2022-08-21T16:25:23;19.30;80.87
70534;SHT31;58088;51.186;17.130;2022-08-21T16:27:50;19.31;80.92
70534;SHT31;58088;51.186;17.130;2022-08-21T16:30:22;19.32;80.92
70534;SHT31;58088;51.186;17.130;2022-08-21T16:32:49;19.32;80.95
70534;SHT31;58088;51.186;17.130;2022-08-21T16:35:17;19.31;80.92
70534;SHT31;58088;51.186;17.130;2022-08-21T16:37:46;19.26;80.98
70534;SHT31;58088;51.186;17.130;2022-08-21T16:40:13;19.27;81.09
70534;SHT31;58088;51.186;17.130;2022-08-21T16:42:40;19.29;81.06
70534;SHT31;58088;51.186;17.130;2022-08-21T16:45:12;19.28;81.07
70534;SHT31;58088;51.186;17.130;2022-08-21T16:47:42;19.26;81.08
70534;SHT31;58088;51.186;17.130;2022-08-21T16:50:10;19.26;81.09
70534;SHT31;58088;51.186;17.130;2022-08-21T16:52:47;19.25;81.20
70534;SHT31;58088;51.186;17.130;2022-08-21T16:55:14;19.24;81.31
70534;SHT31;58088;51.186;17.130;2022-08-21T16:57:41;19.23;81.31
70534;SHT31;58088;51.186;17.130;2022-08-21T17:00:08;19.22;81.52
70534;SHT31;58088;51.186;17.130;2022-08-21T17:02:41;19.22;81.59
70534;SHT31;58088;51.186;17.130;2022-08-21T17:05:11;19.18;81.61
70534;SHT31;58088;51.186;17.130;2022-08-21T17:07:38;19.15;81.61